• Join FlightAware (Why Join?)
  • Login
  • US Flag 
04:12PM EDT


 

Airport Tracker/Info


-or-


 

Live Flight TrackerFlight Track Log ✈ EJA982 ✈ 21-Jul-2013 ✈ KONT - KLAS

Flight Track Log - Related Links

Times and Time Zones

All times are in EDT time to prevent confusion due to time zone crossing. See the EJA982 flight status page for this flight to view local times or setup timezone preferences in your user account.

Time Position Orientation Groundspeed Altitude Reporting Facility
EDT Latitude Longitude Course Direction KTS MPH feet Rate Location/Type
01:02PM 34.0500 -117.6167 299° West 173 199 1,800  Level Southern California TRACON
01:04PM 34.1183 -117.7686 299° West 267 307 7,100 2,580 Climbing Los Angeles Center
01:05PM 34.1583 -117.8297 308° West 280 322 10,400 2,220 Climbing Los Angeles Center
01:07PM 34.2317 -117.9400 309° West 359 413 11,800 1,260 Climbing Los Angeles Center
01:08PM 34.3156 -117.9808 338° Northwest 343 395 13,300 2,280 Climbing Los Angeles Center
01:09PM 34.3833 -117.8831 50° Northeast 309 356 17,000 1,740 Climbing Los Angeles Center
01:10PM 34.4311 -117.7744 62° Northeast 369 425 17,000  Level Los Angeles Center
01:11PM 34.4822 -117.6581 62° Northeast 391 450 17,000  Level Los Angeles Center
01:12PM 34.5461 -117.5181 61° Northeast 397 457 17,000  Level Los Angeles Center
01:13PM 34.5983 -117.3978 62° Northeast 404 465 17,000  Level Los Angeles Center
01:14PM 34.6511 -117.2789 62° Northeast 404 465 17,000  Level Los Angeles Center
01:15PM 34.7147 -117.1367 61° Northeast 402 463 17,000  Level Los Angeles Center
01:16PM 34.7689 -117.0167 61° Northeast 406 467 17,000  Level Los Angeles Center
01:17PM 34.8314 -116.8725 62° Northeast 406 467 17,000  Level Los Angeles Center
01:19PM 34.8847 -116.7528 61° Northeast 405 466 17,000  Level Los Angeles Center
01:20PM 34.9483 -116.6089 62° Northeast 404 465 17,000  Level Los Angeles Center
01:21PM 35.0200 -116.5028 50° Northeast 414 476 17,000  Level Los Angeles Center
01:22PM 35.1322 -116.3636 45° Northeast 412 474 17,100  Climbing Los Angeles Center
01:23PM 35.2094 -116.2681 45° Northeast 405 466 17,100 -480 Level Los Angeles Center
01:24PM 35.2711 -116.1875 47° Northeast 346 398 16,200 -1,380 Descending Los Angeles Center
01:25PM 35.3344 -116.1094 45° Northeast 330 380 14,300 -1,560 Descending Los Angeles Center
01:26PM 35.3953 -116.0369 44° Northeast 318 366 13,000 -600 Descending Los Angeles Center
01:27PM 35.4506 -115.9644 47° Northeast 304 350 13,100  Climbing Los Angeles Center
01:28PM 35.5217 -115.8728 46° Northeast 306 352 13,000  Descending Los Angeles Center
01:29PM 35.5839 -115.7994 44° Northeast 294 338 13,100 -600 Climbing Los Angeles Center
01:30PM 35.6358 -115.7300 47° Northeast 283 326 11,900 -1,560 Descending Los Angeles Center
01:31PM 35.6772 -115.6614 53° Northeast 275 316 10,200 -960 Descending Los Angeles Center
01:32PM 35.7222 -115.5886 53° Northeast 267 307 10,100 -780 Descending Los Angeles Center
01:33PM 35.7711 -115.5147 51° Northeast 264 304 8,700 -1,020 Descending Los Angeles Center
01:34PM 35.8189 -115.4461 49° Northeast 266 306 8,100 -300 Descending Los Angeles Center
01:35PM 35.8728 -115.3756 47° Northeast 283 326 8,100 -60 Level Los Angeles Center
01:36PM 35.9500 -115.3531 13° North 253 291 8,000 -480 Descending Los Angeles Center
01:37PM 36.0058 -115.3428 North 202 232 7,200 -540 Descending Los Angeles Center
01:38PM 36.0533 -115.3325 10° North 202 232 7,100 -120 Descending Los Angeles Center
01:39PM 36.0778 -115.3267 11° North 204 235 7,100 -120 Level Los Angeles Center
01:39PM 36.1131 -115.3183 11° North 207 238 7,000 -420 Descending Los Angeles Center
01:40PM 36.1467 -115.3094 12° North 208 239 6,600 -240 Descending Los Angeles Center
01:41PM 36.2044 -115.2772 24° Northeast 205 236 6,600 -420 Level Los Angeles Center
01:42PM 36.1950 -115.2122 100° East 195 224 5,800 -1,200 Descending Los Angeles Center
01:43PM 36.1733 -115.1539 115° Southeast 189 217 4,200 -1,380 Descending Los Angeles Center
01:44PM 36.1339 -115.1369 161° South 171 197 3,000 -840 Descending Los Angeles Center
01:45PM 36.0922 -115.1583 203° Southwest 161 185 2,300 -600 Descending Los Angeles Center
01:47PM 36.0801 -115.1523 95° East  Level Estimated